sim
Sign-in with your pilot id or email,
or register
Callsign
Passwort

Schedule Details

Flight Number: DLH1654
Departure: Munich Airport (EDDM) at 13:55
Arrival: Bucharest Henri Coanda International Airport (LROP) at 15:50
Route: Lufthansa Passenger Schedule. Enter filed route here before submitting Pirep.

Weather Information
Getting current METAR information for EDDM 221950Z VRB01KT CAVOK 17/15 Q1010 NOSIG
Getting current METAR information for LROP 221930Z 08005KT CAVOK 16/10 Q1018 NOSIG

Schedule Frequency

Route Map